
Distance (Route):
Temperature : -49.0°C
Humidity : 0.8%
Pressure : 32.2hPa| Receiver | Frames | First received | Last received |
|---|---|---|---|
| DL1XH-west | 58 | 2026-09-03 12:43:48 | 2026-09-03 12:58:09 |
| DL1XH1-15 | 47 | 2026-09-03 12:44:25 | 2026-09-03 12:58:20 |
| DJ2DS-15 | 19 | 2026-09-03 12:33:54 | 2026-09-03 12:59:09 |
| Receiver | Date | Latitude | Longitude | Direction | Speed | Altitude | Climb | Temperature | Humidity | Pressure | Voltage | Killtimer | Uptime | BKT | XDATA |
|---|---|---|---|---|---|---|---|---|---|---|---|---|---|---|---|
| DJ2DS-15 | 2026-09-03 12:59:09 | 58.90170 | 6.86603 | 134° | 16km/h | 23832m | -53.4m/s | -49.0°C | 0.8% | 32.2hPa | 2.6V | 00:00:00 | 00:00:00 | 00:00:00 | |
| DL1XH1-15 | 2026-09-03 12:58:20 | 58.90253 | 6.86235 | 90° | 5km/h | 27048m | -69.7m/s | -46.3°C | 3.1% | 19.6hPa | 2.6V | 08:30:00 | 02:19:03 | 00:00:00 | |
| DL1XH1-15 | 2026-09-03 12:58:10 | 58.90250 | 6.86160 | 99° | 18km/h | 27759m | -74.6m/s | -44.7°C | 2.8% | 17.6hPa | 2.6V | 08:30:00 | 02:18:53 | 00:00:00 | |
| DL1XH-west | 2026-09-03 12:58:09 | 58.90249 | 6.86196 | 87° | 18km/h | 27467m | -72.2m/s | -46.1°C | 0% | 18.4hPa | 2.6V | 18:12:15 | 02:18:57 | 00:00:00 | |
| DL1XH-west | 2026-09-03 12:57:58 | 58.90247 | 6.86110 | 72° | 16km/h | 28267m | -74.5m/s | -45.1°C | 0% | 16.3hPa | 2.6V | 18:12:15 | 02:18:46 | 00:00:00 | |
| DL1XH1-15 | 2026-09-03 12:57:53 | 58.90232 | 6.86018 | 96° | 22km/h | 29027m | -78.2m/s | -43.5°C | 2.7% | 14.5hPa | 2.6V | 08:30:00 | 02:18:36 | 00:00:00 | |
| DL1XH-west | 2026-09-03 12:57:44 | 58.90233 | 6.85983 | 95° | 16km/h | 29331m | -74.3m/s | -42.9°C | 0% | 13.8hPa | 2.6V | 18:12:15 | 02:18:32 | 00:00:00 | |
| DL1XH1-15 | 2026-09-03 12:57:41 | 58.90236 | 6.85942 | 86° | 13km/h | 29761m | -69.3m/s | -42.5°C | 2.4% | 12.9hPa | 2.6V | 08:30:00 | 02:18:26 | 00:00:00 | |
| DL1XH-west | 2026-09-03 12:57:33 | 58.90234 | 6.85908 | 82° | 15km/h | 30091m | -67.6m/s | -42.5°C | 0% | 12.3hPa | 2.7V | 18:12:15 | 02:18:21 | 00:00:00 | |
| DL1XH-west | 2026-09-03 12:57:23 | 58.90234 | 6.85841 | 82° | 15km/h | 30647m | -34.8m/s | -43.6°C | 0% | 11.2hPa | 2.7V | 18:12:15 | 02:18:11 | 00:00:00 | |
| DL1XH-west | 2026-09-03 12:57:12 | 58.90198 | 6.85714 | 73° | 29km/h | 30717m | 3.9m/s | -43.5°C | 0% | 11.1hPa | 2.7V | 18:12:15 | 02:18:00 | 00:00:00 | |
| DL1XH1-15 | 2026-09-03 12:57:10 | 58.90185 | 6.85661 | 70° | 20km/h | 30692m | 5.3m/s | -43.6°C | 2.7% | 11.1hPa | 2.6V | 08:30:00 | 02:17:55 | 00:00:00 | |
| DL1XH-west | 2026-09-03 12:57:02 | 58.90174 | 6.85609 | 53° | 26km/h | 30666m | 4.3m/s | -43.6°C | 0% | 11.2hPa | 2.7V | 18:12:15 | 02:17:50 | 00:00:00 | |
| DL1XH-west | 2026-09-03 12:56:52 | 58.90149 | 6.85518 | 35° | 24km/h | 30619m | 3.9m/s | -43.6°C | 0% | 11.3hPa | 2.6V | 18:12:15 | 02:17:40 | 00:00:00 | |
| DJ2DS-15 | 2026-09-03 12:56:45 | 58.90127 | 6.85465 | 56° | 15km/h | 30583m | 4.3m/s | -43.6°C | 0.6% | 11.3hPa | 2.7V | 00:00:00 | 00:00:00 | 00:00:00 | |
| DL1XH-west | 2026-09-03 12:56:42 | 58.90124 | 6.85441 | 104° | 15km/h | 30563m | 5.1m/s | -43.6°C | 0% | 11.4hPa | 2.7V | 18:12:15 | 02:17:29 | 00:00:00 | |
| DL1XH-west | 2026-09-03 12:56:32 | 58.90102 | 6.85377 | 84° | 13km/h | 30514m | 3.7m/s | -43.6°C | 0% | 11.5hPa | 2.6V | 18:12:15 | 02:17:19 | 00:00:00 | |
| DL1XH1-15 | 2026-09-03 12:56:30 | 58.90096 | 6.85353 | 39° | 20km/h | 30495m | 4.8m/s | -43.8°C | 2.7% | 11.5hPa | 2.7V | 08:30:00 | 02:17:15 | 00:00:00 | |
| DL1XH-west | 2026-09-03 12:56:22 | 58.90069 | 6.85310 | 43° | 20km/h | 30465m | 4.4m/s | -43.9°C | 0% | 11.5hPa | 2.7V | 18:12:15 | 02:17:09 | 00:00:00 | |
| DL1XH1-15 | 2026-09-03 12:56:20 | 58.90054 | 6.85293 | 31° | 13km/h | 30446m | 3.8m/s | -44°C | 2.8% | 11.6hPa | 2.6V | 08:30:00 | 02:17:05 | 00:00:00 | |
| DL1XH-west | 2026-09-03 12:56:11 | 58.90044 | 6.85257 | 29° | 15km/h | 30410m | 4.2m/s | -44.2°C | 0% | 11.6hPa | 2.6V | 18:12:15 | 02:16:58 | 00:00:00 | |
| DL1XH1-15 | 2026-09-03 12:56:10 | 58.90029 | 6.85239 | 75° | 11km/h | 30386m | 4.6m/s | -44.1°C | 2.8% | 11.7hPa | 2.6V | 08:30:00 | 02:16:53 | 00:00:00 | |
| DL1XH1-15 | 2026-09-03 12:56:00 | 58.90029 | 6.85214 | 309° | 0km/h | 30334m | 5.6m/s | -43.9°C | 2.8% | 11.8hPa | 2.7V | 08:30:00 | 02:16:43 | 00:00:00 | |
| DL1XH-west | 2026-09-03 12:55:59 | 58.90029 | 6.85219 | 78° | 4km/h | 30356m | 5.5m/s | -44°C | 0% | 11.7hPa | 2.7V | 18:12:15 | 02:16:47 | 00:00:00 | |
| DL1XH-west | 2026-09-03 12:55:48 | 58.90037 | 6.85190 | 120° | 20km/h | 30297m | 4m/s | -43.6°C | 0% | 11.8hPa | 2.7V | 18:12:15 | 02:16:36 | 00:00:00 | |
| DL1XH1-15 | 2026-09-03 12:55:41 | 58.90044 | 6.85150 | 116° | 11km/h | 30249m | 5.1m/s | -43.5°C | 2.7% | 11.9hPa | 2.7V | 08:30:00 | 02:16:27 | 00:00:00 | |
| DL1XH-west | 2026-09-03 12:55:37 | 58.90049 | 6.85135 | 126° | 16km/h | 30233m | 4.5m/s | -43.5°C | 0% | 11.9hPa | 2.6V | 18:12:15 | 02:16:24 | 00:00:00 | |
| DL1XH-west | 2026-09-03 12:55:24 | 58.90074 | 6.85048 | 106° | 18km/h | 30168m | 4.6m/s | -43.3°C | 0% | 12.1hPa | 2.7V | 18:12:15 | 02:16:12 | 00:00:00 | |
| DL1XH1-15 | 2026-09-03 12:55:21 | 58.90083 | 6.85000 | 111° | 18km/h | 30140m | 4.8m/s | -43.3°C | 2.7% | 12.1hPa | 2.7V | 08:30:00 | 02:16:07 | 00:00:00 | |
| DL1XH-west | 2026-09-03 12:55:14 | 58.90090 | 6.84940 | 87° | 16km/h | 30108m | 5.7m/s | -43.4°C | 0% | 12.2hPa | 2.7V | 18:12:15 | 02:16:01 | 00:00:00 | |
| DL1XH1-15 | 2026-09-03 12:55:10 | 58.90085 | 6.84913 | 78° | 16km/h | 30085m | 5.4m/s | -43.2°C | 2.7% | 12.2hPa | 2.6V | 08:30:00 | 02:15:57 | 00:00:00 | |
| DL1XH1-15 | 2026-09-03 12:55:05 | 58.90091 | 6.84819 | 94° | 16km/h | 30031m | 4.9m/s | -43.2°C | 2.7% | 12.3hPa | 2.7V | 08:30:00 | 02:15:47 | 00:00:00 | |
| DL1XH-west | 2026-09-03 12:55:02 | 58.90089 | 6.84840 | 106° | 15km/h | 30047m | 4.8m/s | -43.2°C | 0% | 12.3hPa | 2.6V | 18:12:15 | 02:15:50 | 00:00:00 | |
| DL1XH-west | 2026-09-03 12:54:51 | 58.90078 | 6.84770 | 73° | 16km/h | 29988m | 6m/s | -43.3°C | 0% | 12.4hPa | 2.7V | 18:12:15 | 02:15:39 | 00:00:00 | |
| DL1XH-west | 2026-09-03 12:54:41 | 58.90064 | 6.84665 | 101° | 13km/h | 29888m | 5.1m/s | -43.3°C | 0% | 12.6hPa | 2.6V | 18:12:15 | 02:15:21 | 00:00:00 | |
| DL1XH1-15 | 2026-09-03 12:54:34 | 58.90065 | 6.84658 | 113° | 16km/h | 29883m | 4.1m/s | -43.3°C | 2.6% | 12.6hPa | 2.6V | 08:30:00 | 02:15:20 | 00:00:00 | |
| DL1XH-west | 2026-09-03 12:54:26 | 58.90074 | 6.84642 | 303° | 2km/h | 29851m | 4.9m/s | -43.4°C | 0% | 12.7hPa | 2.6V | 18:12:15 | 02:15:14 | 00:00:00 | |
| DL1XH1-15 | 2026-09-03 12:54:25 | 58.90069 | 6.84633 | 51° | 11km/h | 29830m | 4.6m/s | -43.4°C | 2.7% | 12.7hPa | 2.7V | 08:30:00 | 02:15:10 | 00:00:00 | |
| DL1XH-west | 2026-09-03 12:54:15 | 58.90066 | 6.84632 | 146° | 5km/h | 29793m | 4.4m/s | -43.2°C | 0% | 12.8hPa | 2.6V | 18:12:15 | 02:15:03 | 00:00:00 | |
| DL1XH1-15 | 2026-09-03 12:54:13 | 58.90068 | 6.84629 | 284° | 2km/h | 29777m | 6.3m/s | -43.2°C | 2.6% | 12.8hPa | 2.7V | 08:30:00 | 02:15:00 | 00:00:00 | |
| DL1XH1-15 | 2026-09-03 12:54:05 | 58.90087 | 6.84595 | 170° | 11km/h | 29720m | 4.8m/s | -43.1°C | 2.6% | 12.9hPa | 2.6V | 08:30:00 | 02:14:50 | 00:00:00 | |
| DL1XH-west | 2026-09-03 12:54:04 | 58.90081 | 6.84602 | 140° | 20km/h | 29733m | 5.5m/s | -43.1°C | 0% | 12.9hPa | 2.6V | 18:12:15 | 02:14:52 | 00:00:00 | |
| DL1XH-west | 2026-09-03 12:53:54 | 58.90099 | 6.84577 | 138° | 15km/h | 29675m | 5.3m/s | -43.4°C | 0% | 13.1hPa | 2.7V | 18:12:15 | 02:14:42 | 00:00:00 | |
| DL1XH1-15 | 2026-09-03 12:53:53 | 58.90105 | 6.84566 | 135° | 18km/h | 29665m | 4.3m/s | -43.4°C | 2.6% | 13hPa | 2.7V | 08:30:00 | 02:14:40 | 00:00:00 | |
| DL1XH1-15 | 2026-09-03 12:53:45 | 58.90137 | 6.84495 | 137° | 27km/h | 29611m | 6m/s | -43.4°C | 2.6% | 13.1hPa | 2.7V | 08:30:00 | 02:14:30 | 00:00:00 | |
| DL1XH-west | 2026-09-03 12:53:43 | 58.90137 | 6.84495 | 138° | 27km/h | 29611m | 6m/s | -43.4°C | 0% | 13.1hPa | 2.7V | 18:12:15 | 02:14:30 | 00:00:00 | |
| DL1XH1-15 | 2026-09-03 12:53:33 | 58.90161 | 6.84409 | 104° | 16km/h | 29556m | 4.8m/s | -43.5°C | 2.6% | 13.2hPa | 2.6V | 08:30:00 | 02:14:20 | 00:00:00 | |
| DL1XH-west | 2026-09-03 12:53:32 | 58.90164 | 6.84393 | 125° | 20km/h | 29545m | 5.1m/s | -43.5°C | 0% | 13.3hPa | 2.7V | 18:12:15 | 02:14:18 | 00:00:00 | |
| DL1XH1-15 | 2026-09-03 12:53:25 | 58.90186 | 6.84322 | 96° | 24km/h | 29503m | 4.9m/s | -43.3°C | 2.6% | 13.3hPa | 2.6V | 08:30:00 | 02:14:10 | 00:00:00 | |
| DL1XH-west | 2026-09-03 12:53:20 | 58.90187 | 6.84297 | 94° | 13km/h | 29487m | 4.4m/s | -43.3°C | 0% | 13.4hPa | 2.7V | 18:12:15 | 02:14:07 | 00:00:00 | |
| DL1XH1-15 | 2026-09-03 12:53:13 | 58.90194 | 6.84243 | 121° | 16km/h | 29450m | 4.5m/s | -43.4°C | 2.6% | 13.5hPa | 2.7V | 08:30:00 | 02:14:00 | 00:00:00 | |
| DL1XH-west | 2026-09-03 12:53:10 | 58.90197 | 6.84227 | 94° | 20km/h | 29441m | 4.9m/s | -43.5°C | 0% | 13.5hPa | 2.6V | 18:12:15 | 02:13:58 | 00:00:00 | |
| DL1XH1-15 | 2026-09-03 12:53:06 | 58.90185 | 6.84140 | 85° | 16km/h | 29396m | 5.3m/s | -43.8°C | 2.6% | 13.6hPa | 2.6V | 08:30:00 | 02:13:50 | 00:00:00 | |
| DL1XH-west | 2026-09-03 12:52:59 | 58.90189 | 6.84106 | 124° | 18km/h | 29375m | 5m/s | -43.8°C | 0% | 13.6hPa | 2.6V | 18:12:15 | 02:13:46 | 00:00:00 | |
| DL1XH1-15 | 2026-09-03 12:52:53 | 58.90191 | 6.84035 | 76° | 29km/h | 29344m | 3.7m/s | -44.1°C | 2.7% | 13.7hPa | 2.6V | 08:30:00 | 02:13:40 | 00:00:00 | |
| DL1XH-west | 2026-09-03 12:52:48 | 58.90190 | 6.83989 | 120° | 15km/h | 29319m | 5.9m/s | -44.2°C | 0% | 13.8hPa | 2.7V | 18:12:15 | 02:13:35 | 00:00:00 | |
| DL1XH1-15 | 2026-09-03 12:52:45 | 58.90205 | 6.83942 | 118° | 26km/h | 29292m | 5m/s | -44.2°C | 2.7% | 13.8hPa | 2.7V | 08:30:00 | 02:13:30 | 00:00:00 | |
| DL1XH-west | 2026-09-03 12:52:38 | 58.90214 | 6.83903 | 106° | 22km/h | 29273m | 4.9m/s | -44.3°C | 0% | 13.8hPa | 2.6V | 18:12:15 | 02:13:26 | 00:00:00 | |
| DL1XH-west | 2026-09-03 12:52:28 | 58.90220 | 6.83823 | 100° | 18km/h | 29216m | 4.9m/s | -44.4°C | 0% | 13.9hPa | 2.7V | 18:12:15 | 02:13:15 | 00:00:00 | |
| DL1XH1-15 | 2026-09-03 12:52:25 | 58.90218 | 6.83781 | 71° | 22km/h | 29188m | 5.9m/s | -44.5°C | 2.8% | 14hPa | 2.7V | 08:30:00 | 02:13:10 | 00:00:00 | |
| DL1XH-west | 2026-09-03 12:52:17 | 58.90209 | 6.83727 | 89° | 15km/h | 29159m | 3.9m/s | -44.7°C | 0% | 14.1hPa | 2.7V | 18:12:15 | 02:13:04 | 00:00:00 | |
| DL1XH1-15 | 2026-09-03 12:52:13 | 58.90211 | 6.83683 | 94° | 35km/h | 29139m | 3.9m/s | -44.7°C | 2.7% | 14.1hPa | 2.6V | 08:30:00 | 02:13:00 | 00:00:00 | |
| DL1XH-west | 2026-09-03 12:52:06 | 58.90220 | 6.83592 | 107° | 22km/h | 29104m | 4.7m/s | -44.9°C | 0% | 14.2hPa | 2.6V | 18:12:15 | 02:12:53 | 00:00:00 | |
| DL1XH1-15 | 2026-09-03 12:52:05 | 58.90222 | 6.83554 | 90° | 29km/h | 29090m | 4.5m/s | -44.9°C | 2.8% | 14.2hPa | 2.7V | 08:30:00 | 02:12:50 | 00:00:00 | |
| DL1XH-west | 2026-09-03 12:51:55 | 58.90214 | 6.83436 | 94° | 33km/h | 29050m | 3.2m/s | -45.2°C | 0% | 14.3hPa | 2.6V | 18:12:15 | 02:12:42 | 00:00:00 | |
| DL1XH1-15 | 2026-09-03 12:51:53 | 58.90215 | 6.83409 | 87° | 22km/h | 29040m | 6m/s | -45.3°C | 0% | 14.3hPa | 2.7V | 08:30:00 | 02:12:40 | 00:00:00 | |
| DL1XH1-15 | 2026-09-03 12:51:45 | 58.90198 | 6.83291 | 85° | 22km/h | 28990m | 5.1m/s | -45.3°C | 0% | 14.4hPa | 2.6V | 08:30:00 | 02:12:30 | 00:00:00 | |
| DL1XH-west | 2026-09-03 12:51:44 | 58.90198 | 6.83303 | 83° | 27km/h | 28995m | 5.5m/s | 0°C | 0% | 14.4hPa | 2.7V | 18:12:15 | 02:12:31 | 00:00:00 | |
| DL1XH-west | 2026-09-03 12:51:34 | 58.90184 | 6.83208 | 69° | 18km/h | 28944m | 4.4m/s | 0°C | 0% | 0hPa | 2.7V | 18:12:15 | 02:12:21 | 00:00:00 | |
| DL1XH1-15 | 2026-09-03 12:51:33 | 58.90182 | 6.83199 | 78° | 20km/h | 28939m | 4.3m/s | -45.4°C | 0% | 0hPa | 2.7V | 08:30:00 | 02:12:20 | 00:00:00 | |
| DL1XH1-15 | 2026-09-03 12:51:25 | 58.90183 | 6.83103 | 56° | 18km/h | 28888m | 4.4m/s | -45.4°C | 0% | 0hPa | 2.6V | 08:30:00 | 02:12:10 | 00:00:00 | |
| DL1XH-west | 2026-09-03 12:51:23 | 58.90185 | 6.83110 | 72° | 13km/h | 28893m | 5.1m/s | 0°C | 0% | 0hPa | 2.7V | 18:12:15 | 02:12:11 | 00:00:00 | |
| DL1XH-west | 2026-09-03 12:51:13 | 58.90158 | 6.82990 | 84° | 27km/h | 28843m | 4m/s | 0°C | 0% | 0hPa | 2.7V | 18:12:15 | 02:12:01 | 00:00:00 | |
| DL1XH-west | 2026-09-03 12:51:01 | 58.90125 | 6.82880 | 60° | 26km/h | 28783m | 4.5m/s | 0°C | 0% | 0hPa | 2.7V | 18:12:15 | 02:11:49 | 00:00:00 | |
| DJ2DS-15 | 2026-09-03 12:49:32 | 58.90022 | 6.82664 | 172° | 16km/h | 28322m | 5.1m/s | -46.8°C | 0.8% | 16.0hPa | 2.7V | 00:00:00 | 00:00:00 | 00:00:00 | |
| DJ2DS-15 | 2026-09-03 12:48:56 | 58.90069 | 6.82612 | 116° | 4km/h | 28124m | 5.4m/s | -46.7°C | 0.8% | 16.5hPa | 2.7V | 00:00:00 | 00:00:00 | 00:00:00 | |
| DJ2DS-15 | 2026-09-03 12:48:20 | 58.90172 | 6.82427 | 138° | 18km/h | 27927m | 5.5m/s | -46.3°C | 0.8% | 17.0hPa | 2.7V | 00:00:00 | 00:00:00 | 00:00:00 | |
| DJ2DS-15 | 2026-09-03 12:47:44 | 58.90276 | 6.82113 | 123° | 31km/h | 27740m | 4.1m/s | -46.3°C | 0.7% | 17.5hPa | 2.7V | 00:00:00 | 00:00:00 | 00:00:00 | |
| DL1XH1-15 | 2026-09-03 12:47:05 | 58.90311 | 6.81736 | 99° | 16km/h | 27534m | 5.2m/s | -47.5°C | 0% | 0hPa | 2.7V | 08:30:00 | 02:07:51 | 00:00:00 | |
| DL1XH-west | 2026-09-03 12:47:04 | 58.90309 | 6.81745 | 109° | 22km/h | 27540m | 3.9m/s | -47.5°C | 0.1% | 0hPa | 2.7V | 18:12:15 | 02:07:52 | 00:00:00 | |
| DL1XH-west | 2026-09-03 12:46:54 | 58.90296 | 6.81685 | 66° | 26km/h | 27486m | 4.6m/s | -47.9°C | 0.1% | 0hPa | 2.7V | 18:12:15 | 02:07:41 | 00:00:00 | |
| DL1XH1-15 | 2026-09-03 12:46:45 | 58.90281 | 6.81609 | 39° | 26km/h | 27434m | 4.5m/s | -48.6°C | 0% | 0hPa | 2.6V | 08:30:00 | 02:07:30 | 00:00:00 | |
| DL1XH1-15 | 2026-09-03 12:46:33 | 58.90247 | 6.81562 | 356° | 11km/h | 27375m | 4.9m/s | -48.6°C | 0% | 0hPa | 2.6V | 08:30:00 | 02:07:18 | 00:00:00 | |
| DL1XH-west | 2026-09-03 12:46:29 | 58.90244 | 6.81561 | 14° | 15km/h | 27369m | 5.6m/s | -48.6°C | 0.2% | 0hPa | 2.7V | 18:12:15 | 02:07:17 | 00:00:00 | |
| DL1XH1-15 | 2026-09-03 12:46:19 | 58.90226 | 6.81550 | 325° | 13km/h | 27311m | 5m/s | -48.3°C | 0% | 0hPa | 2.7V | 08:30:00 | 02:07:05 | 00:00:00 | |
| DL1XH-west | 2026-09-03 12:46:19 | 58.90230 | 6.81544 | 319° | 7km/h | 27321m | 4.1m/s | -48.3°C | 0.2% | 0hPa | 2.6V | 18:12:15 | 02:07:07 | 00:00:00 | |
| DL1XH1-15 | 2026-09-03 12:46:12 | 58.90216 | 6.81569 | 208° | 16km/h | 27261m | 3.2m/s | -48.3°C | 0% | 0hPa | 2.7V | 08:30:00 | 02:06:55 | 00:00:00 | |
| DL1XH-west | 2026-09-03 12:46:08 | 58.90213 | 6.81566 | 197° | 13km/h | 27266m | 4.8m/s | -48.3°C | 0.2% | 0hPa | 2.6V | 18:12:15 | 02:06:56 | 00:00:00 | |
| DL1XH1-15 | 2026-09-03 12:45:59 | 58.90221 | 6.81619 | 258° | 11km/h | 27214m | 4.8m/s | -48.1°C | 0% | 0hPa | 2.6V | 08:30:00 | 02:06:45 | 00:00:00 | |
| DL1XH-west | 2026-09-03 12:45:57 | 58.90221 | 6.81619 | 259° | 11km/h | 27214m | 4.8m/s | -48.2°C | 0.2% | 0hPa | 2.6V | 18:12:15 | 02:06:45 | 00:00:00 | |
| DJ2DS-15 | 2026-09-03 12:45:56 | 58.90222 | 6.81631 | 252° | 13km/h | 27205m | 4.1m/s | -48.1°C | 0.8% | 19.0hPa | 2.7V | 00:00:00 | 00:00:00 | 00:00:00 | |
| DL1XH1-15 | 2026-09-03 12:45:52 | 58.90239 | 6.81686 | 254° | 22km/h | 27166m | 4m/s | -47.8°C | 0% | 0hPa | 2.7V | 08:30:00 | 02:06:35 | 00:00:00 | |
| DL1XH-west | 2026-09-03 12:45:46 | 58.90240 | 6.81695 | 250° | 20km/h | 27161m | 5.6m/s | -47.8°C | 0.1% | 0hPa | 2.6V | 18:12:15 | 02:06:34 | 00:00:00 | |
| DL1XH1-15 | 2026-09-03 12:45:39 | 58.90262 | 6.81754 | 224° | 22km/h | 27114m | 4.6m/s | -47.6°C | 0% | 0hPa | 2.7V | 08:30:00 | 02:06:25 | 00:00:00 | |
| DL1XH-west | 2026-09-03 12:45:34 | 58.90274 | 6.81784 | 228° | 16km/h | 27095m | 4.3m/s | -47.6°C | 0.3% | 0hPa | 2.7V | 18:12:15 | 02:06:21 | 00:00:00 | |
| DL1XH1-15 | 2026-09-03 12:45:31 | 58.90295 | 6.81814 | 243° | 20km/h | 27061m | 4m/s | -47.4°C | 0% | 0hPa | 2.7V | 08:30:00 | 02:06:14 | 00:00:00 | |
| DL1XH-west | 2026-09-03 12:45:23 | 58.90307 | 6.81841 | 215° | 29km/h | 27045m | 5.1m/s | -47.4°C | 0.1% | 0hPa | 2.6V | 18:12:15 | 02:06:11 | 00:00:00 | |
| DJ2DS-15 | 2026-09-03 12:45:20 | 58.90334 | 6.81866 | 199° | 22km/h | 27025m | 4.9m/s | -47.3°C | 0.8% | 19.5hPa | 2.6V | 00:00:00 | 00:00:00 | 00:00:00 | |
| DL1XH1-15 | 2026-09-03 12:45:19 | 58.90346 | 6.81870 | 168° | 15km/h | 27008m | 5m/s | -47.1°C | 0% | 0hPa | 2.6V | 08:30:00 | 02:06:04 | 00:00:00 | |
| DL1XH-west | 2026-09-03 12:45:13 | 58.90356 | 6.81867 | 191° | 11km/h | 26993m | 5.8m/s | -47.3°C | 0.1% | 0hPa | 2.7V | 18:12:15 | 02:06:01 | 00:00:00 | |
| DL1XH1-15 | 2026-09-03 12:45:11 | 58.90402 | 6.81890 | 183° | 27km/h | 26952m | 4.9m/s | 0°C | 0% | 0hPa | 2.6V | 08:30:00 | 02:05:53 | 00:00:00 | |
| DL1XH-west | 2026-09-03 12:45:03 | 58.90415 | 6.81889 | 170° | 22km/h | 26942m | 5m/s | -47.2°C | 0.1% | 0hPa | 2.7V | 18:12:15 | 02:05:51 | 00:00:00 | |
| DL1XH1-15 | 2026-09-03 12:45:00 | 58.90456 | 6.81877 | 182° | 24km/h | 26900m | 5.7m/s | 0°C | 0% | 0hPa | 2.6V | 00:00:00 | 02:05:43 | 00:00:00 | |
| DL1XH-west | 2026-09-03 12:44:53 | 58.90470 | 6.81875 | 169° | 29km/h | 26890m | 4.1m/s | -47.3°C | 0.1% | 0hPa | 2.7V | 18:12:15 | 02:05:41 | 00:00:00 | |
| DL1XH1-15 | 2026-09-03 12:44:50 | 58.90513 | 6.81829 | 139° | 26km/h | 26849m | 4.1m/s | 0°C | 0% | 0hPa | 2.7V | 00:00:00 | 02:05:33 | 00:00:00 | |
| DL1XH-west | 2026-09-03 12:44:41 | 58.90531 | 6.81804 | 150° | 22km/h | 26828m | 5.3m/s | -47.8°C | 0.1% | 0hPa | 2.7V | 18:12:15 | 02:05:29 | 00:00:00 | |
| DL1XH1-15 | 2026-09-03 12:44:39 | 58.90565 | 6.81750 | 127° | 22km/h | 26791m | 5m/s | 0°C | 0% | 0hPa | 2.7V | 00:00:00 | 02:05:22 | 00:00:00 | |
| DL1XH-west | 2026-09-03 12:44:30 | 58.90580 | 6.81715 | 135° | 20km/h | 26770m | 6.1m/s | -48.1°C | 0.1% | 0hPa | 2.7V | 18:12:15 | 02:05:18 | 00:00:00 | |
| DL1XH1-15 | 2026-09-03 12:44:25 | 58.90603 | 6.81660 | 120° | 29km/h | 26738m | 5.1m/s | 0°C | 0% | 0hPa | 2.7V | 00:00:00 | 02:05:12 | 00:00:00 | |
| DL1XH-west | 2026-09-03 12:44:20 | 58.90613 | 6.81619 | 114° | 22km/h | 26717m | 4.6m/s | -48.1°C | 0.1% | 0hPa | 2.7V | 18:12:15 | 02:05:08 | 00:00:00 | |
| DL1XH-west | 2026-09-03 12:44:09 | 58.90644 | 6.81513 | 118° | 26km/h | 26661m | 4.5m/s | 0°C | 0% | 0hPa | 2.7V | 18:12:15 | 02:04:57 | 00:00:00 | |
| DL1XH-west | 2026-09-03 12:44:00 | 58.90669 | 6.81440 | 125° | 13km/h | 26607m | 4.3m/s | 0°C | 0% | 0hPa | 2.6V | 18:12:15 | 02:04:47 | 00:00:00 | |
| DL1XH-west | 2026-09-03 12:43:48 | 58.90697 | 6.81365 | 131° | 15km/h | 26548m | 5.2m/s | 0°C | 0% | 0hPa | 2.6V | 18:12:15 | 02:04:36 | 00:00:00 | |
| DJ2DS-15 | 2026-09-03 12:43:31 | 58.90745 | 6.81274 | 124° | 11km/h | 26456m | 4.8m/s | -48.5°C | 0.8% | 21.3hPa | 0V | 00:00:00 | 00:00:00 | 00:00:00 | |
| DJ2DS-15 | 2026-09-03 12:42:55 | 58.90882 | 6.80936 | 114° | 27km/h | 26274m | 5.3m/s | -48.1°C | 0.8% | 21.9hPa | 0V | 00:00:00 | 00:00:00 | 00:00:00 | |
| DJ2DS-15 | 2026-09-03 12:41:43 | 58.90955 | 6.79972 | 78° | 18km/h | 25908m | 4.8m/s | -49.7°C | 0.9% | 23.2hPa | 0V | 00:00:00 | 00:00:00 | 00:00:00 | |
| DJ2DS-15 | 2026-09-03 12:40:31 | 58.90781 | 6.79278 | 13° | 20km/h | 25540m | 5.4m/s | -50.7°C | 1.0% | 24.6hPa | 0V | 00:00:00 | 00:00:00 | 00:00:00 | |
| DJ2DS-15 | 2026-09-03 12:39:55 | 58.90699 | 6.79196 | 138° | 4km/h | 25355m | 4.8m/s | -50.0°C | 0.9% | 25.3hPa | 0V | 00:00:00 | 00:00:00 | 00:00:00 | |
| DJ2DS-15 | 2026-09-03 12:38:43 | 58.90942 | 6.78735 | 120° | 33km/h | 24984m | 4.5m/s | -49.6°C | 0.9% | 26.8hPa | 0V | 00:00:00 | 00:00:00 | 00:00:00 | |
| DJ2DS-15 | 2026-09-03 12:38:07 | 58.91053 | 6.78170 | 105° | 29km/h | 24800m | 4.7m/s | -49.9°C | 0.9% | 27.6hPa | 0V | 00:00:00 | 00:00:00 | 00:00:00 | |
| DJ2DS-15 | 2026-09-03 12:37:31 | 58.91055 | 6.77633 | 83° | 33km/h | 24618m | 4.1m/s | -49.7°C | 0.9% | 28.3hPa | 0V | 00:00:00 | 00:00:00 | 00:00:00 | |
| DJ2DS-15 | 2026-09-03 12:35:43 | 58.90916 | 6.76856 | 149° | 7km/h | 24137m | 3.9m/s | -49.9°C | 1.0% | 30.6hPa | 0V | 00:00:00 | 00:00:00 | 00:00:00 | |
| DJ2DS-15 | 2026-09-03 12:34:31 | 58.91162 | 6.76805 | 150° | 22km/h | 23812m | 5.4m/s | -49.1°C | 1.0% | 32.1hPa | 0V | 00:00:00 | 00:00:00 | 00:00:00 | |
| DJ2DS-15 | 2026-09-03 12:33:54 | 58.91323 | 6.76406 | 114° | 35km/h | 23642m | 5.1m/s | -48.7°C | 0.9% | 33.0hPa | 0V | 00:00:00 | 00:00:00 | 00:00:00 |